N960DH CYQB-CYVP
Flight info
| Callsign | N960DH |
|---|---|
| Flight time | 2h 17m |
| Altitude | 29000 |
| Route | GADAL Q910 YBC DCT ARAME DCT 54N068W 56N068W |
| Aircraft | TBM8/L-SDFGRWY/S |
Departure
| Time | 2026-05-05 21:10 |
|---|---|
| Airport | Quebec Jean Lesage International Airport (CYQB) |
Arrival
| Time | 2026-05-05 23:28 |
|---|---|
| Airport | Kuujjuaq Airport (CYVP) |
| Time | Latitude | Longitude | Altitude | Speed | Heading |
|---|---|---|---|---|---|
| 2026-05-05 20:48 | 46.78965 | -71.37747 | 248 ft | 0 kts | 134° |
| 2026-05-05 20:56 | 46.78965 | -71.37746 | 248 ft | 0 kts | 134° |
| 2026-05-05 21:03 | 46.78963 | -71.37744 | 248 ft | 3 kts | 117° |
| 2026-05-05 21:03 | 46.78969 | -71.37739 | 248 ft | 0 kts | 315° |
| 2026-05-05 21:04 | 46.78977 | -71.37760 | 248 ft | 0 kts | 294° |
| 2026-05-05 21:06 | 46.78983 | -71.37774 | 248 ft | 7 kts | 317° |
| 2026-05-05 21:07 | 46.79002 | -71.37835 | 248 ft | 9 kts | 223° |
| 2026-05-05 21:07 | 46.78939 | -71.37924 | 248 ft | 15 kts | 225° |
| 2026-05-05 21:07 | 46.78920 | -71.38037 | 248 ft | 12 kts | 277° |
| 2026-05-05 21:07 | 46.78861 | -71.38095 | 248 ft | 14 kts | 189° |
| 2026-05-05 21:08 | 46.78810 | -71.38105 | 248 ft | 0 kts | 188° |
| 2026-05-05 21:08 | 46.78792 | -71.38109 | 248 ft | 5 kts | 186° |
| 2026-05-05 21:08 | 46.78781 | -71.38111 | 248 ft | 0 kts | 187° |
| 2026-05-05 21:09 | 46.78761 | -71.38114 | 248 ft | 10 kts | 187° |
| 2026-05-05 21:09 | 46.78713 | -71.38175 | 248 ft | 17 kts | 275° |
| 2026-05-05 21:09 | 46.78752 | -71.38597 | 248 ft | 68 kts | 278° |
| 2026-05-05 21:09 | 46.78861 | -71.39449 | 384 ft | 94 kts | 270° |
| 2026-05-05 21:10 | 46.78991 | -71.40401 | 714 ft | 105 kts | 272° |
| 2026-05-05 21:10 | 46.78983 | -71.41445 | 1139 ft | 104 kts | 244° |
| 2026-05-05 21:10 | 46.78437 | -71.42118 | 1554 ft | 113 kts | 190° |
| 2026-05-05 21:10 | 46.77884 | -71.41194 | 2041 ft | 149 kts | 114° |
| 2026-05-05 21:11 | 46.77785 | -71.40229 | 2474 ft | 142 kts | 103° |
| 2026-05-05 21:11 | 46.77759 | -71.38741 | 2812 ft | 157 kts | 99° |
| 2026-05-05 21:11 | 46.77762 | -71.36596 | 3365 ft | 159 kts | 102° |
| 2026-05-05 21:11 | 46.77627 | -71.35032 | 3813 ft | 151 kts | 122° |
| 2026-05-05 21:12 | 46.77187 | -71.33592 | 4187 ft | 156 kts | 133° |
| 2026-05-05 21:12 | 46.76813 | -71.32680 | 4507 ft | 156 kts | 137° |
| 2026-05-05 21:12 | 46.76081 | -71.30906 | 5242 ft | 148 kts | 135° |
| 2026-05-05 21:12 | 46.75779 | -71.29985 | 5594 ft | 151 kts | 126° |
| 2026-05-05 21:13 | 46.75524 | -71.28441 | 5986 ft | 164 kts | 108° |
| 2026-05-05 21:13 | 46.75557 | -71.26713 | 6284 ft | 181 kts | 83° |
| 2026-05-05 21:13 | 46.75762 | -71.24853 | 6575 ft | 193 kts | 86° |
| 2026-05-05 21:13 | 46.75971 | -71.22954 | 7065 ft | 189 kts | 86° |
| 2026-05-05 21:14 | 46.76482 | -71.21190 | 7475 ft | 191 kts | 38° |
| 2026-05-05 21:14 | 46.77596 | -71.20413 | 7912 ft | 172 kts | 358° |
| 2026-05-05 21:14 | 46.78766 | -71.20070 | 8356 ft | 172 kts | 355° |
| 2026-05-05 21:14 | 46.79947 | -71.19701 | 8793 ft | 175 kts | 355° |
| 2026-05-05 21:15 | 46.81134 | -71.19363 | 9213 ft | 175 kts | 353° |
| 2026-05-05 21:15 | 46.82346 | -71.18973 | 9613 ft | 179 kts | 356° |
| 2026-05-05 21:15 | 46.83560 | -71.18512 | 9980 ft | 182 kts | 358° |
| 2026-05-05 21:15 | 46.84791 | -71.18017 | 10349 ft | 184 kts | 359° |
| 2026-05-05 21:16 | 46.86031 | -71.17513 | 10715 ft | 186 kts | 359° |
| 2026-05-05 21:16 | 46.87282 | -71.17002 | 11099 ft | 187 kts | 359° |
| 2026-05-05 21:16 | 46.88540 | -71.16492 | 11465 ft | 188 kts | 359° |
| 2026-05-05 21:16 | 46.89806 | -71.15979 | 11837 ft | 189 kts | 358° |
| 2026-05-05 21:17 | 46.91107 | -71.15463 | 12095 ft | 199 kts | 359° |
| 2026-05-05 21:17 | 46.92471 | -71.14915 | 12355 ft | 208 kts | 0° |
| 2026-05-05 21:17 | 46.93893 | -71.14336 | 12619 ft | 216 kts | 1° |
| 2026-05-05 21:17 | 46.95371 | -71.13736 | 12890 ft | 224 kts | 2° |
| 2026-05-05 21:18 | 46.96900 | -71.13115 | 13166 ft | 232 kts | 2° |
| 2026-05-05 21:18 | 46.98479 | -71.12477 | 13431 ft | 238 kts | 2° |
| 2026-05-05 21:18 | 46.99958 | -71.11885 | 13659 ft | 244 kts | 3° |
| 2026-05-05 21:18 | 47.00858 | -71.11521 | 13800 ft | 247 kts | 3° |
| 2026-05-05 21:19 | 47.02529 | -71.10851 | 14049 ft | 252 kts | 4° |
| 2026-05-05 21:19 | 47.04238 | -71.10146 | 14296 ft | 257 kts | 5° |
| 2026-05-05 21:19 | 47.05968 | -71.09434 | 14555 ft | 260 kts | 4° |
| 2026-05-05 21:19 | 47.07728 | -71.08732 | 14853 ft | 264 kts | 4° |
| 2026-05-05 21:20 | 47.09470 | -71.07710 | 15084 ft | 278 kts | 20° |
| 2026-05-05 21:20 | 47.11016 | -71.05918 | 15303 ft | 290 kts | 44° |
| 2026-05-05 21:20 | 47.12398 | -71.03756 | 15568 ft | 291 kts | 40° |
| 2026-05-05 21:20 | 47.13859 | -71.01698 | 15829 ft | 292 kts | 39° |
| 2026-05-05 21:21 | 47.15325 | -70.99626 | 16094 ft | 293 kts | 40° |
| 2026-05-05 21:21 | 47.16791 | -70.97523 | 16353 ft | 295 kts | 40° |
| 2026-05-05 21:21 | 47.18248 | -70.95396 | 16615 ft | 296 kts | 41° |
| 2026-05-05 21:21 | 47.19713 | -70.93258 | 16884 ft | 297 kts | 40° |
| 2026-05-05 21:22 | 47.21194 | -70.91130 | 17145 ft | 298 kts | 40° |
| 2026-05-05 21:22 | 47.22672 | -70.88989 | 17397 ft | 299 kts | 41° |
| 2026-05-05 21:22 | 47.24146 | -70.86829 | 17661 ft | 300 kts | 41° |
| 2026-05-05 21:22 | 47.25625 | -70.84657 | 17922 ft | 300 kts | 41° |
| 2026-05-05 21:23 | 47.27105 | -70.82488 | 18155 ft | 301 kts | 41° |
| 2026-05-05 21:23 | 47.28585 | -70.80312 | 18379 ft | 301 kts | 41° |
| 2026-05-05 21:23 | 47.30069 | -70.78128 | 18618 ft | 302 kts | 41° |
| 2026-05-05 21:23 | 47.31553 | -70.75936 | 18849 ft | 302 kts | 41° |
| 2026-05-05 21:24 | 47.33036 | -70.73746 | 19088 ft | 302 kts | 41° |
| 2026-05-05 21:24 | 47.34499 | -70.71568 | 19324 ft | 303 kts | 42° |
| 2026-05-05 21:24 | 47.35974 | -70.69343 | 19568 ft | 303 kts | 41° |
| 2026-05-05 21:24 | 47.37468 | -70.67154 | 19803 ft | 303 kts | 41° |
| 2026-05-05 21:25 | 47.38962 | -70.64963 | 20045 ft | 303 kts | 41° |
| 2026-05-05 21:25 | 47.40452 | -70.62765 | 20283 ft | 303 kts | 41° |
| 2026-05-05 21:25 | 47.41941 | -70.60565 | 20534 ft | 303 kts | 41° |
| 2026-05-05 21:25 | 47.43424 | -70.58358 | 20780 ft | 303 kts | 41° |
| 2026-05-05 21:26 | 47.44905 | -70.56150 | 21020 ft | 302 kts | 41° |
| 2026-05-05 21:26 | 47.46384 | -70.53943 | 21270 ft | 302 kts | 41° |
| 2026-05-05 21:26 | 47.47860 | -70.51742 | 21520 ft | 302 kts | 41° |
| 2026-05-05 21:26 | 47.49338 | -70.49537 | 21787 ft | 302 kts | 41° |
| 2026-05-05 21:27 | 47.50824 | -70.47350 | 22084 ft | 301 kts | 39° |
| 2026-05-05 21:27 | 47.52363 | -70.45266 | 22365 ft | 300 kts | 37° |
| 2026-05-05 21:27 | 47.53926 | -70.43228 | 22647 ft | 299 kts | 36° |
| 2026-05-05 21:27 | 47.55489 | -70.41201 | 22923 ft | 299 kts | 36° |
| 2026-05-05 21:28 | 47.57043 | -70.39163 | 23167 ft | 298 kts | 36° |
| 2026-05-05 21:28 | 47.58587 | -70.37127 | 23397 ft | 297 kts | 36° |
| 2026-05-05 21:28 | 47.60136 | -70.35090 | 23599 ft | 298 kts | 35° |
| 2026-05-05 21:28 | 47.61689 | -70.33039 | 23790 ft | 300 kts | 36° |
| 2026-05-05 21:29 | 47.63244 | -70.30980 | 23973 ft | 301 kts | 36° |
| 2026-05-05 21:29 | 47.64802 | -70.28909 | 24174 ft | 302 kts | 36° |
| 2026-05-05 21:29 | 47.66365 | -70.26822 | 24366 ft | 302 kts | 36° |
| 2026-05-05 21:29 | 47.67931 | -70.24731 | 24553 ft | 303 kts | 36° |
| 2026-05-05 21:30 | 47.69497 | -70.22637 | 24728 ft | 303 kts | 36° |
| 2026-05-05 21:30 | 47.71065 | -70.20539 | 24933 ft | 304 kts | 36° |
| 2026-05-05 21:30 | 47.72635 | -70.18438 | 25143 ft | 304 kts | 36° |
| 2026-05-05 21:30 | 47.74206 | -70.16335 | 25352 ft | 304 kts | 36° |
| 2026-05-05 21:31 | 47.75775 | -70.14228 | 25558 ft | 304 kts | 36° |
| 2026-05-05 21:31 | 47.77352 | -70.12114 | 25700 ft | 307 kts | 36° |
| 2026-05-05 21:31 | 47.78944 | -70.09979 | 25859 ft | 310 kts | 36° |
| 2026-05-05 21:31 | 47.80533 | -70.07845 | 25995 ft | 313 kts | 36° |
| 2026-05-05 21:32 | 47.82178 | -70.05630 | 26125 ft | 316 kts | 36° |
| 2026-05-05 21:32 | 47.83811 | -70.03429 | 26263 ft | 318 kts | 36° |
| 2026-05-05 21:32 | 47.85458 | -70.01206 | 26403 ft | 321 kts | 37° |
| 2026-05-05 21:32 | 47.87096 | -69.98996 | 26533 ft | 322 kts | 36° |
| 2026-05-05 21:33 | 47.88767 | -69.96760 | 26669 ft | 324 kts | 36° |
| 2026-05-05 21:33 | 47.90439 | -69.94498 | 26818 ft | 326 kts | 37° |
| 2026-05-05 21:33 | 47.92141 | -69.92180 | 26964 ft | 327 kts | 37° |
| 2026-05-05 21:33 | 47.93804 | -69.89920 | 27094 ft | 329 kts | 37° |
| 2026-05-05 21:34 | 47.95498 | -69.87622 | 27224 ft | 330 kts | 37° |
| 2026-05-05 21:34 | 47.97221 | -69.85287 | 27398 ft | 331 kts | 37° |
| 2026-05-05 21:34 | 47.98903 | -69.83007 | 27520 ft | 332 kts | 37° |
| 2026-05-05 21:34 | 48.00618 | -69.80679 | 27660 ft | 333 kts | 37° |
| 2026-05-05 21:35 | 48.02335 | -69.78347 | 27778 ft | 334 kts | 37° |
| 2026-05-05 21:35 | 48.04048 | -69.76000 | 27901 ft | 335 kts | 37° |
| 2026-05-05 21:35 | 48.05766 | -69.73654 | 28035 ft | 335 kts | 37° |
| 2026-05-05 21:35 | 48.07494 | -69.71305 | 28156 ft | 336 kts | 37° |
| 2026-05-05 21:36 | 48.09219 | -69.68955 | 28295 ft | 336 kts | 37° |
| 2026-05-05 21:36 | 48.10944 | -69.66597 | 28429 ft | 336 kts | 37° |
| 2026-05-05 21:36 | 48.12675 | -69.64230 | 28531 ft | 338 kts | 37° |
| 2026-05-05 21:36 | 48.14422 | -69.61840 | 28554 ft | 343 kts | 37° |
| 2026-05-05 21:37 | 48.17988 | -69.56950 | 28552 ft | 352 kts | 37° |
| 2026-05-05 21:37 | 48.21632 | -69.51939 | 28547 ft | 359 kts | 37° |
| 2026-05-05 21:38 | 48.25342 | -69.46827 | 28547 ft | 365 kts | 38° |
| 2026-05-05 21:38 | 48.29104 | -69.41631 | 28497 ft | 369 kts | 38° |
| 2026-05-05 21:39 | 48.32891 | -69.36394 | 28547 ft | 371 kts | 37° |
| 2026-05-05 21:39 | 48.36696 | -69.31115 | 28538 ft | 373 kts | 37° |
| 2026-05-05 21:40 | 48.40522 | -69.25800 | 28539 ft | 375 kts | 38° |
| 2026-05-05 21:40 | 48.44362 | -69.20452 | 28535 ft | 377 kts | 38° |
| 2026-05-05 21:41 | 48.48211 | -69.15081 | 28536 ft | 378 kts | 38° |
| 2026-05-05 21:41 | 48.52072 | -69.09685 | 28547 ft | 380 kts | 38° |
| 2026-05-05 21:42 | 48.55951 | -69.04253 | 28533 ft | 381 kts | 38° |
| 2026-05-05 21:42 | 48.59837 | -68.98796 | 28528 ft | 382 kts | 38° |
| 2026-05-05 21:43 | 48.63733 | -68.93314 | 28527 ft | 382 kts | 38° |
| 2026-05-05 21:43 | 48.67621 | -68.87830 | 28528 ft | 383 kts | 38° |
| 2026-05-05 21:44 | 48.71525 | -68.82315 | 28533 ft | 384 kts | 38° |
| 2026-05-05 21:44 | 48.75434 | -68.76775 | 28541 ft | 385 kts | 38° |
| 2026-05-05 21:45 | 48.79345 | -68.71222 | 28533 ft | 385 kts | 38° |
| 2026-05-05 21:45 | 48.83257 | -68.65657 | 28530 ft | 385 kts | 38° |
| 2026-05-05 21:46 | 48.87162 | -68.60089 | 28548 ft | 385 kts | 38° |
| 2026-05-05 21:46 | 48.91076 | -68.54498 | 28530 ft | 386 kts | 38° |
| 2026-05-05 21:47 | 48.94988 | -68.48898 | 28527 ft | 386 kts | 38° |
| 2026-05-05 21:47 | 48.98898 | -68.43283 | 28534 ft | 387 kts | 38° |
| 2026-05-05 21:48 | 49.02809 | -68.37656 | 28489 ft | 387 kts | 39° |
| 2026-05-05 21:48 | 49.06679 | -68.32077 | 28524 ft | 385 kts | 39° |
| 2026-05-05 21:49 | 49.10557 | -68.26468 | 28533 ft | 384 kts | 39° |
| 2026-05-05 21:49 | 49.12583 | -68.23828 | 28539 ft | 379 kts | 28° |
| 2026-05-05 21:49 | 49.14880 | -68.21983 | 28548 ft | 367 kts | 11° |
| 2026-05-05 21:50 | 49.19717 | -68.20057 | 28540 ft | 357 kts | 0° |
| 2026-05-05 21:50 | 49.24574 | -68.18528 | 28564 ft | 357 kts | 359° |
| 2026-05-05 21:51 | 49.29435 | -68.17006 | 28571 ft | 357 kts | 357° |
| 2026-05-05 21:51 | 49.34318 | -68.15424 | 28535 ft | 359 kts | 359° |
| 2026-05-05 21:52 | 49.41647 | -68.12971 | 28546 ft | 359 kts | 359° |
| 2026-05-05 21:53 | 49.46540 | -68.11336 | 28543 ft | 360 kts | 359° |
| 2026-05-05 21:53 | 49.51435 | -68.09706 | 28549 ft | 361 kts | 359° |
| 2026-05-05 21:54 | 49.56342 | -68.08062 | 28538 ft | 361 kts | 359° |
| 2026-05-05 21:54 | 49.61241 | -68.06419 | 28535 ft | 360 kts | 359° |
| 2026-05-05 21:55 | 49.66137 | -68.04777 | 28543 ft | 360 kts | 359° |
| 2026-05-05 21:55 | 49.71050 | -68.03128 | 28569 ft | 362 kts | 359° |
| 2026-05-05 21:56 | 49.75982 | -68.01464 | 28523 ft | 363 kts | 359° |
| 2026-05-05 21:56 | 49.80913 | -67.99799 | 28538 ft | 363 kts | 359° |
| 2026-05-05 21:57 | 49.85852 | -67.98129 | 28535 ft | 363 kts | 359° |
| 2026-05-05 21:57 | 49.90783 | -67.96451 | 28516 ft | 363 kts | 359° |
| 2026-05-05 21:58 | 49.94879 | -67.95065 | 28530 ft | 363 kts | 359° |
| 2026-05-05 21:58 | 50.00599 | -67.93104 | 28508 ft | 361 kts | 359° |
| 2026-05-05 21:59 | 50.04689 | -67.91703 | 28518 ft | 358 kts | 358° |
| 2026-05-05 21:59 | 50.09551 | -67.90044 | 28514 ft | 357 kts | 358° |
| 2026-05-05 22:00 | 50.14396 | -67.88389 | 28511 ft | 356 kts | 358° |
| 2026-05-05 22:00 | 50.19181 | -67.86727 | 28513 ft | 357 kts | 359° |
| 2026-05-05 22:01 | 50.24014 | -67.85067 | 28530 ft | 355 kts | 358° |
| 2026-05-05 22:01 | 50.28848 | -67.83410 | 28518 ft | 355 kts | 359° |
| 2026-05-05 22:02 | 50.33689 | -67.81786 | 28537 ft | 358 kts | 358° |
| 2026-05-05 22:02 | 50.38534 | -67.80097 | 28539 ft | 360 kts | 359° |
| 2026-05-05 22:03 | 50.43428 | -67.78365 | 28499 ft | 362 kts | 0° |
| 2026-05-05 22:03 | 50.48323 | -67.76657 | 28548 ft | 361 kts | 358° |
| 2026-05-05 22:04 | 50.53244 | -67.74981 | 28535 ft | 362 kts | 359° |
| 2026-05-05 22:04 | 50.58165 | -67.73262 | 28499 ft | 363 kts | 359° |
| 2026-05-05 22:05 | 50.63075 | -67.71526 | 28545 ft | 363 kts | 359° |
| 2026-05-05 22:05 | 50.68010 | -67.69805 | 28520 ft | 363 kts | 359° |
| 2026-05-05 22:06 | 50.72938 | -67.68063 | 28536 ft | 363 kts | 359° |
| 2026-05-05 22:06 | 50.77868 | -67.66328 | 28530 ft | 363 kts | 359° |
| 2026-05-05 22:07 | 50.82798 | -67.64588 | 28510 ft | 363 kts | 359° |
| 2026-05-05 22:07 | 50.87724 | -67.62846 | 28522 ft | 362 kts | 359° |
| 2026-05-05 22:08 | 50.92648 | -67.61114 | 28524 ft | 363 kts | 360° |
| 2026-05-05 22:08 | 50.97574 | -67.59355 | 28544 ft | 364 kts | 360° |
| 2026-05-05 22:09 | 51.02525 | -67.57587 | 28532 ft | 365 kts | 360° |
| 2026-05-05 22:09 | 51.07478 | -67.55818 | 28549 ft | 365 kts | 360° |
| 2026-05-05 22:10 | 51.12436 | -67.54052 | 28531 ft | 365 kts | 0° |
| 2026-05-05 22:10 | 51.17400 | -67.52272 | 28534 ft | 366 kts | 0° |
| 2026-05-05 22:11 | 51.22368 | -67.50490 | 28546 ft | 366 kts | 0° |
| 2026-05-05 22:11 | 51.27310 | -67.48714 | 28558 ft | 367 kts | 0° |
| 2026-05-05 22:12 | 51.32303 | -67.46969 | 28555 ft | 364 kts | 355° |
| 2026-05-05 22:12 | 51.34773 | -67.46657 | 28584 ft | 350 kts | 344° |
| 2026-05-05 22:12 | 51.37172 | -67.46873 | 28553 ft | 342 kts | 338° |
| 2026-05-05 22:13 | 51.41878 | -67.47773 | 28528 ft | 339 kts | 336° |
| 2026-05-05 22:13 | 51.46557 | -67.48734 | 28529 ft | 340 kts | 336° |
| 2026-05-05 22:14 | 51.51254 | -67.49669 | 28530 ft | 340 kts | 336° |
| 2026-05-05 22:14 | 51.55955 | -67.50579 | 28542 ft | 341 kts | 337° |
| 2026-05-05 22:15 | 51.60671 | -67.51481 | 28511 ft | 340 kts | 336° |
| 2026-05-05 22:15 | 51.65370 | -67.52388 | 28514 ft | 341 kts | 337° |
| 2026-05-05 22:16 | 51.70077 | -67.53288 | 28507 ft | 340 kts | 336° |
| 2026-05-05 22:16 | 51.74759 | -67.54215 | 28491 ft | 339 kts | 337° |
| 2026-05-05 22:17 | 51.79435 | -67.55118 | 28495 ft | 338 kts | 337° |
| 2026-05-05 22:17 | 51.84108 | -67.56025 | 28565 ft | 339 kts | 336° |
| 2026-05-05 22:18 | 51.88825 | -67.56957 | 28510 ft | 343 kts | 336° |
| 2026-05-05 22:18 | 51.93565 | -67.57879 | 28502 ft | 344 kts | 336° |
| 2026-05-05 22:19 | 51.98325 | -67.58806 | 28498 ft | 345 kts | 336° |
| 2026-05-05 22:19 | 52.03090 | -67.59737 | 28500 ft | 346 kts | 337° |
| 2026-05-05 22:20 | 52.07868 | -67.60672 | 28489 ft | 346 kts | 337° |
| 2026-05-05 22:20 | 52.12655 | -67.61610 | 28502 ft | 347 kts | 336° |
| 2026-05-05 22:21 | 52.17452 | -67.62555 | 28489 ft | 347 kts | 336° |
| 2026-05-05 22:21 | 52.22254 | -67.63502 | 28484 ft | 347 kts | 336° |
| 2026-05-05 22:22 | 52.27054 | -67.64452 | 28489 ft | 347 kts | 336° |
| 2026-05-05 22:22 | 52.31855 | -67.65405 | 28494 ft | 348 kts | 336° |
| 2026-05-05 22:23 | 52.36663 | -67.66378 | 28545 ft | 349 kts | 336° |
| 2026-05-05 22:23 | 52.41506 | -67.67343 | 28492 ft | 351 kts | 336° |
| 2026-05-05 22:24 | 52.46353 | -67.68299 | 28484 ft | 351 kts | 336° |
| 2026-05-05 22:24 | 52.51160 | -67.69255 | 28489 ft | 350 kts | 336° |
| 2026-05-05 22:25 | 52.56031 | -67.70233 | 28480 ft | 350 kts | 336° |
| 2026-05-05 22:25 | 52.60855 | -67.71202 | 28476 ft | 349 kts | 336° |
| 2026-05-05 22:26 | 52.65685 | -67.72181 | 28484 ft | 349 kts | 336° |
| 2026-05-05 22:26 | 52.70477 | -67.73144 | 28483 ft | 349 kts | 336° |
| 2026-05-05 22:27 | 52.75293 | -67.74120 | 28494 ft | 349 kts | 336° |
| 2026-05-05 22:27 | 52.80148 | -67.75108 | 28498 ft | 350 kts | 336° |
| 2026-05-05 22:28 | 52.84942 | -67.76080 | 28492 ft | 350 kts | 337° |
| 2026-05-05 22:28 | 52.89791 | -67.77076 | 28496 ft | 352 kts | 336° |
| 2026-05-05 22:29 | 52.94665 | -67.78073 | 28479 ft | 353 kts | 337° |
| 2026-05-05 22:29 | 52.99542 | -67.79063 | 28480 ft | 353 kts | 337° |
| 2026-05-05 22:30 | 53.04415 | -67.80059 | 28460 ft | 352 kts | 337° |
| 2026-05-05 22:30 | 53.09275 | -67.81061 | 28476 ft | 352 kts | 337° |
| 2026-05-05 22:31 | 53.14149 | -67.82079 | 28473 ft | 354 kts | 337° |
| 2026-05-05 22:31 | 53.19046 | -67.83090 | 28486 ft | 355 kts | 338° |
| 2026-05-05 22:32 | 53.23937 | -67.84087 | 28479 ft | 354 kts | 338° |
| 2026-05-05 22:32 | 53.28822 | -67.85099 | 28468 ft | 352 kts | 338° |
| 2026-05-05 22:33 | 53.33682 | -67.86111 | 28464 ft | 352 kts | 338° |
| 2026-05-05 22:33 | 53.38532 | -67.87121 | 28538 ft | 352 kts | 338° |
| 2026-05-05 22:34 | 53.43405 | -67.88142 | 28477 ft | 353 kts | 338° |
| 2026-05-05 22:34 | 53.48279 | -67.89173 | 28463 ft | 353 kts | 339° |
| 2026-05-05 22:35 | 53.53146 | -67.90192 | 28463 ft | 352 kts | 339° |
| 2026-05-05 22:35 | 53.58005 | -67.91212 | 28458 ft | 352 kts | 339° |
| 2026-05-05 22:36 | 53.62865 | -67.92237 | 28459 ft | 351 kts | 339° |
| 2026-05-05 22:36 | 53.67684 | -67.93257 | 28456 ft | 351 kts | 339° |
| 2026-05-05 22:37 | 53.72535 | -67.94286 | 28453 ft | 351 kts | 339° |
| 2026-05-05 22:37 | 53.77382 | -67.95321 | 28453 ft | 351 kts | 339° |
| 2026-05-05 22:38 | 53.82230 | -67.96352 | 28445 ft | 351 kts | 339° |
| 2026-05-05 22:38 | 53.87073 | -67.97382 | 28449 ft | 351 kts | 339° |
| 2026-05-05 22:39 | 53.91908 | -67.98415 | 28444 ft | 350 kts | 339° |
| 2026-05-05 22:39 | 53.96752 | -67.99455 | 28433 ft | 350 kts | 339° |
| 2026-05-05 22:40 | 54.01661 | -68.00079 | 28439 ft | 358 kts | 346° |
| 2026-05-05 22:40 | 54.06667 | -68.00075 | 28446 ft | 360 kts | 347° |
| 2026-05-05 22:41 | 54.11672 | -68.00113 | 28434 ft | 359 kts | 347° |
| 2026-05-05 22:41 | 54.16668 | -68.00138 | 28434 ft | 360 kts | 348° |
| 2026-05-05 22:42 | 54.21679 | -68.00147 | 28443 ft | 360 kts | 348° |
| 2026-05-05 22:42 | 54.26687 | -68.00149 | 28443 ft | 360 kts | 348° |
| 2026-05-05 22:43 | 54.31700 | -68.00153 | 28444 ft | 362 kts | 348° |
| 2026-05-05 22:43 | 54.36739 | -68.00156 | 28439 ft | 363 kts | 348° |
| 2026-05-05 22:44 | 54.41795 | -68.00156 | 28435 ft | 363 kts | 348° |
| 2026-05-05 22:44 | 54.46000 | -68.00152 | 28434 ft | 364 kts | 348° |
| 2026-05-05 22:45 | 54.51883 | -68.00151 | 28438 ft | 364 kts | 348° |
| 2026-05-05 22:45 | 54.56136 | -68.00155 | 28476 ft | 365 kts | 350° |
| 2026-05-05 22:46 | 54.61218 | -68.00159 | 28439 ft | 366 kts | 350° |
| 2026-05-05 22:46 | 54.66306 | -68.00155 | 28429 ft | 366 kts | 350° |
| 2026-05-05 22:47 | 54.71387 | -68.00148 | 28428 ft | 365 kts | 350° |
| 2026-05-05 22:47 | 54.76465 | -68.00144 | 28430 ft | 365 kts | 350° |
| 2026-05-05 22:48 | 54.81537 | -68.00145 | 28431 ft | 365 kts | 350° |
| 2026-05-05 22:48 | 54.86612 | -68.00143 | 28431 ft | 364 kts | 351° |
| 2026-05-05 22:49 | 54.91636 | -68.00142 | 28427 ft | 364 kts | 351° |
| 2026-05-05 22:49 | 54.96712 | -68.00143 | 28420 ft | 364 kts | 351° |
| 2026-05-05 22:50 | 55.01764 | -68.00143 | 28426 ft | 363 kts | 351° |
| 2026-05-05 22:50 | 55.06826 | -68.00143 | 28423 ft | 363 kts | 351° |
| 2026-05-05 22:51 | 55.11873 | -68.00146 | 28411 ft | 362 kts | 351° |
| 2026-05-05 22:51 | 55.16908 | -68.00142 | 28409 ft | 361 kts | 351° |
| 2026-05-05 22:52 | 55.21928 | -68.00142 | 28412 ft | 360 kts | 351° |
| 2026-05-05 22:52 | 55.26934 | -68.00126 | 28429 ft | 359 kts | 353° |
| 2026-05-05 22:53 | 55.31908 | -68.00131 | 28416 ft | 356 kts | 353° |
| 2026-05-05 22:53 | 55.36847 | -68.00144 | 28410 ft | 355 kts | 353° |
| 2026-05-05 22:54 | 55.41771 | -68.00143 | 28406 ft | 352 kts | 354° |
| 2026-05-05 22:54 | 55.46629 | -68.00081 | 28393 ft | 345 kts | 355° |
| 2026-05-05 22:55 | 55.51437 | -68.00106 | 28402 ft | 346 kts | 354° |
| 2026-05-05 22:55 | 55.56258 | -68.00070 | 28418 ft | 347 kts | 355° |
| 2026-05-05 22:56 | 55.61104 | -68.00028 | 28413 ft | 349 kts | 354° |
| 2026-05-05 22:56 | 55.65966 | -68.00007 | 28422 ft | 350 kts | 354° |
| 2026-05-05 22:57 | 55.70828 | -67.99996 | 28415 ft | 349 kts | 355° |
| 2026-05-05 22:57 | 55.75687 | -67.99991 | 28415 ft | 348 kts | 355° |
| 2026-05-05 22:58 | 55.80525 | -67.99991 | 28413 ft | 348 kts | 355° |
| 2026-05-05 22:58 | 55.85360 | -67.99991 | 28421 ft | 347 kts | 355° |
| 2026-05-05 22:59 | 55.90190 | -67.99991 | 28426 ft | 347 kts | 355° |
| 2026-05-05 22:59 | 55.95024 | -67.99974 | 28441 ft | 347 kts | 358° |
| 2026-05-05 23:00 | 56.02195 | -68.00012 | 28428 ft | 343 kts | 356° |
| 2026-05-05 23:00 | 56.06987 | -68.00337 | 28433 ft | 341 kts | 355° |
| 2026-05-05 23:01 | 56.11721 | -68.00691 | 28428 ft | 340 kts | 355° |
| 2026-05-05 23:01 | 56.16409 | -68.01013 | 28433 ft | 339 kts | 356° |
| 2026-05-05 23:02 | 56.21122 | -68.01321 | 28431 ft | 339 kts | 356° |
| 2026-05-05 23:02 | 56.25165 | -68.01583 | 28425 ft | 338 kts | 357° |
| 2026-05-05 23:03 | 56.29862 | -68.01881 | 28438 ft | 337 kts | 357° |
| 2026-05-05 23:03 | 56.34544 | -68.02179 | 28436 ft | 336 kts | 357° |
| 2026-05-05 23:04 | 56.39217 | -68.02479 | 28437 ft | 336 kts | 357° |
| 2026-05-05 23:04 | 56.43888 | -68.02781 | 28442 ft | 336 kts | 357° |
| 2026-05-05 23:05 | 56.48560 | -68.03081 | 28438 ft | 336 kts | 357° |
| 2026-05-05 23:05 | 56.53232 | -68.03386 | 28422 ft | 335 kts | 357° |
| 2026-05-05 23:06 | 56.57889 | -68.03688 | 28433 ft | 335 kts | 358° |
| 2026-05-05 23:06 | 56.62544 | -68.03974 | 28447 ft | 335 kts | 359° |
| 2026-05-05 23:07 | 56.64909 | -68.04125 | 28007 ft | 346 kts | 359° |
| 2026-05-05 23:07 | 56.67330 | -68.04282 | 27510 ft | 349 kts | 359° |
| 2026-05-05 23:07 | 56.69755 | -68.04441 | 27026 ft | 349 kts | 359° |
| 2026-05-05 23:07 | 56.72191 | -68.04599 | 26547 ft | 350 kts | 359° |
| 2026-05-05 23:08 | 56.74624 | -68.04758 | 26080 ft | 351 kts | 359° |
| 2026-05-05 23:08 | 56.77067 | -68.04917 | 25621 ft | 351 kts | 359° |
| 2026-05-05 23:08 | 56.79514 | -68.05076 | 25168 ft | 352 kts | 358° |
| 2026-05-05 23:08 | 56.81963 | -68.05234 | 24720 ft | 353 kts | 358° |
| 2026-05-05 23:09 | 56.84419 | -68.05399 | 24278 ft | 353 kts | 358° |
| 2026-05-05 23:09 | 56.86876 | -68.05565 | 23846 ft | 354 kts | 358° |
| 2026-05-05 23:09 | 56.89343 | -68.05721 | 23423 ft | 355 kts | 358° |
| 2026-05-05 23:09 | 56.91809 | -68.05856 | 22997 ft | 355 kts | 358° |
| 2026-05-05 23:10 | 56.94285 | -68.06006 | 22495 ft | 356 kts | 358° |
| 2026-05-05 23:10 | 56.96728 | -68.06163 | 22000 ft | 356 kts | 357° |
| 2026-05-05 23:10 | 56.99205 | -68.06337 | 21511 ft | 357 kts | 357° |
| 2026-05-05 23:10 | 57.01719 | -68.06514 | 21019 ft | 357 kts | 357° |
| 2026-05-05 23:11 | 57.04200 | -68.06681 | 20545 ft | 357 kts | 356° |
| 2026-05-05 23:11 | 57.06687 | -68.06853 | 20078 ft | 358 kts | 356° |
| 2026-05-05 23:11 | 57.09176 | -68.07017 | 19619 ft | 358 kts | 356° |
| 2026-05-05 23:11 | 57.11628 | -68.07167 | 19166 ft | 358 kts | 356° |
| 2026-05-05 23:12 | 57.14116 | -68.07316 | 18719 ft | 358 kts | 356° |
| 2026-05-05 23:12 | 57.16610 | -68.07464 | 18278 ft | 359 kts | 355° |
| 2026-05-05 23:12 | 57.19108 | -68.07619 | 17846 ft | 359 kts | 355° |
| 2026-05-05 23:12 | 57.21608 | -68.07780 | 17366 ft | 359 kts | 355° |
| 2026-05-05 23:13 | 57.24098 | -68.07937 | 16876 ft | 357 kts | 355° |
| 2026-05-05 23:13 | 57.26571 | -68.08081 | 16409 ft | 354 kts | 356° |
| 2026-05-05 23:13 | 57.29023 | -68.08213 | 15933 ft | 351 kts | 355° |
| 2026-05-05 23:13 | 57.31456 | -68.08389 | 15463 ft | 348 kts | 355° |
| 2026-05-05 23:14 | 57.33868 | -68.08567 | 14997 ft | 345 kts | 355° |
| 2026-05-05 23:14 | 57.36254 | -68.08739 | 14546 ft | 342 kts | 355° |
| 2026-05-05 23:14 | 57.38624 | -68.08914 | 14100 ft | 341 kts | 355° |
| 2026-05-05 23:14 | 57.40991 | -68.09086 | 13659 ft | 339 kts | 355° |
| 2026-05-05 23:15 | 57.43333 | -68.09241 | 13217 ft | 336 kts | 355° |
| 2026-05-05 23:15 | 57.45654 | -68.09382 | 12726 ft | 330 kts | 356° |
| 2026-05-05 23:15 | 57.47919 | -68.09507 | 12240 ft | 322 kts | 356° |
| 2026-05-05 23:15 | 57.50135 | -68.09652 | 11765 ft | 316 kts | 355° |
| 2026-05-05 23:16 | 57.52321 | -68.09812 | 11297 ft | 312 kts | 355° |
| 2026-05-05 23:16 | 57.54473 | -68.09972 | 10838 ft | 308 kts | 355° |
| 2026-05-05 23:16 | 57.56598 | -68.10132 | 10460 ft | 303 kts | 355° |
| 2026-05-05 23:16 | 57.58689 | -68.10290 | 10082 ft | 299 kts | 355° |
| 2026-05-05 23:17 | 57.60759 | -68.10444 | 9711 ft | 296 kts | 356° |
| 2026-05-05 23:17 | 57.62808 | -68.10589 | 9356 ft | 293 kts | 355° |
| 2026-05-05 23:17 | 57.64834 | -68.10748 | 8961 ft | 290 kts | 355° |
| 2026-05-05 23:17 | 57.66845 | -68.10899 | 8552 ft | 288 kts | 355° |
| 2026-05-05 23:18 | 57.68842 | -68.11049 | 8147 ft | 287 kts | 355° |
| 2026-05-05 23:18 | 57.70829 | -68.11186 | 7767 ft | 284 kts | 355° |
| 2026-05-05 23:18 | 57.72800 | -68.11323 | 7376 ft | 282 kts | 355° |
| 2026-05-05 23:18 | 57.74755 | -68.11461 | 6995 ft | 281 kts | 354° |
| 2026-05-05 23:19 | 57.76709 | -68.11603 | 6612 ft | 281 kts | 355° |
| 2026-05-05 23:19 | 57.78658 | -68.11732 | 6232 ft | 279 kts | 354° |
| 2026-05-05 23:19 | 57.80591 | -68.11864 | 5847 ft | 278 kts | 354° |
| 2026-05-05 23:19 | 57.82518 | -68.11996 | 5448 ft | 276 kts | 355° |
| 2026-05-05 23:20 | 57.84428 | -68.12131 | 5064 ft | 274 kts | 355° |
| 2026-05-05 23:20 | 57.86322 | -68.12264 | 4719 ft | 271 kts | 355° |
| 2026-05-05 23:20 | 57.88188 | -68.12395 | 4443 ft | 266 kts | 355° |
| 2026-05-05 23:20 | 57.90026 | -68.12531 | 4178 ft | 263 kts | 355° |
| 2026-05-05 23:21 | 57.91846 | -68.12663 | 3917 ft | 261 kts | 356° |
| 2026-05-05 23:21 | 57.93653 | -68.12786 | 3649 ft | 260 kts | 356° |
| 2026-05-05 23:21 | 57.95454 | -68.12910 | 3416 ft | 258 kts | 356° |
| 2026-05-05 23:21 | 57.97242 | -68.13035 | 3169 ft | 257 kts | 356° |
| 2026-05-05 23:22 | 57.99023 | -68.12990 | 2920 ft | 257 kts | 6° |
| 2026-05-05 23:22 | 58.00761 | -68.12238 | 2673 ft | 251 kts | 14° |
| 2026-05-05 23:22 | 58.02348 | -68.11500 | 2415 ft | 231 kts | 12° |
| 2026-05-05 23:22 | 58.03893 | -68.10899 | 2141 ft | 223 kts | 11° |
| 2026-05-05 23:23 | 58.05422 | -68.10654 | 1867 ft | 213 kts | 349° |
| 2026-05-05 23:23 | 58.06587 | -68.11817 | 1646 ft | 168 kts | 309° |
| 2026-05-05 23:23 | 58.07136 | -68.13636 | 1623 ft | 163 kts | 284° |
| 2026-05-05 23:23 | 58.07388 | -68.15825 | 1628 ft | 179 kts | 276° |
| 2026-05-05 23:24 | 58.07655 | -68.18114 | 1625 ft | 178 kts | 279° |
| 2026-05-05 23:24 | 58.07931 | -68.20428 | 1615 ft | 183 kts | 278° |
| 2026-05-05 23:24 | 58.08196 | -68.22803 | 1619 ft | 185 kts | 278° |
| 2026-05-05 23:24 | 58.08464 | -68.25186 | 1613 ft | 182 kts | 278° |
| 2026-05-05 23:25 | 58.08720 | -68.27197 | 1568 ft | 138 kts | 278° |
| 2026-05-05 23:25 | 58.08886 | -68.28864 | 1402 ft | 122 kts | 274° |
| 2026-05-05 23:25 | 58.09023 | -68.30437 | 1222 ft | 117 kts | 275° |
| 2026-05-05 23:25 | 58.09193 | -68.31911 | 1051 ft | 118 kts | 275° |
| 2026-05-05 23:26 | 58.09365 | -68.33323 | 890 ft | 96 kts | 281° |
| 2026-05-05 23:26 | 58.09510 | -68.34548 | 749 ft | 95 kts | 274° |
| 2026-05-05 23:26 | 58.09632 | -68.35744 | 620 ft | 91 kts | 276° |
| 2026-05-05 23:26 | 58.09796 | -68.36921 | 517 ft | 92 kts | 279° |
| 2026-05-05 23:27 | 58.09927 | -68.38092 | 384 ft | 92 kts | 276° |
| 2026-05-05 23:27 | 58.10056 | -68.39264 | 210 ft | 89 kts | 276° |
| 2026-05-05 23:27 | 58.10179 | -68.40418 | 101 ft | 89 kts | 275° |
| 2026-05-05 23:27 | 58.10293 | -68.41431 | 94 ft | 58 kts | 278° |
| 2026-05-05 23:28 | 58.10323 | -68.41874 | 110 ft | 19 kts | 255° |
| 2026-05-05 23:28 | 58.10269 | -68.41883 | 107 ft | 13 kts | 116° |
| 2026-05-05 23:28 | 58.10202 | -68.41774 | 104 ft | 2 kts | 167° |
| 2026-05-05 23:28 | 58.10192 | -68.41770 | 104 ft | 3 kts | 168° |
| 2026-05-05 23:29 | 58.10148 | -68.41750 | 103 ft | 10 kts | 165° |
| 2026-05-05 23:29 | 58.10085 | -68.41725 | 103 ft | 3 kts | 182° |
| 2026-05-05 23:29 | 58.10043 | -68.41737 | 109 ft | 10 kts | 212° |
| 2026-05-05 23:29 | 58.09982 | -68.41832 | 115 ft | 9 kts | 239° |
| 2026-05-05 23:30 | 58.09977 | -68.41864 | 114 ft | 1 kts | 256° |
| 2026-05-05 23:30 | 58.09978 | -68.41963 | 115 ft | 16 kts | 279° |
| 2026-05-05 23:30 | 58.09966 | -68.42057 | 115 ft | 3 kts | 208° |
| 2026-05-05 23:30 | 58.09961 | -68.42055 | 115 ft | 0 kts | 132° |